No particular awareness of the weather is required.    There are no Weather-warnings

My Other Sites:

SYKIA HOMEWEATHERSTATIONsikeaweather.alinos.eu

SYKIA METEOTEMPLATEsykiameteo.alinos.eu

alinos.eualinos.eu



Nearby METAR Reports

   
LGEL - Elefsis (hel-Afb, Greece
Distance from station: E 77 km
Updated: 31-05-2020 13:50
Few Clouds  
Few Clouds  
   Wind: varies Calm
Wind: varies Calm
Temperature: 23°C
Dew Point: 12°C
Humidity: 50%
Barometer: 1012 hPa
Clouds: Few Clouds
Visibility: More than 10 km
Cloud details: Few Clouds 2500 ft
LGEL 311050Z /////KT 9999 FEW025 23/12 Q1012
LGRX - Araxos (civ/Afb), Greece
Distance from station: W 110 km
Updated: 31-05-2020 14:20
Mostly Cloudy  
Mostly Cloudy  
   Wind: WNW 7.4 km/h
Wind: WNW 7.4 km/h
Temperature: 18°C
Dew Point: 14°C
Humidity: 78%
Barometer: 1015 hPa
Clouds: Mostly Cloudy
Visibility: More than 10 km
Cloud details: Partly Cloudy 2000 ft,
Mostly Cloudy 8000 ft
LGRX 311120Z 30004KT 9999 SCT020TCU BKN080 18/14 Q1015
LGAV - Athens/Elef-Ven, Greece
Distance from station: E 113 km
Updated: 31-05-2020 14:20
Few Clouds  
Few Clouds  
   Wind: SSW 24.1 km/h
Wind: SSW 24.1 km/h
Temperature: 21°C
Dew Point: 10°C
Humidity: 50%
Barometer: 1013 hPa
Clouds: Few Clouds
Visibility: More than 10 km
Cloud details: Few Clouds 3000 ft
LGAV 311120Z 21013KT 9999 FEW030 21/10 Q1013 NOSIG
LGAD - Andravida (civ/A, Greece
Distance from station: W 124 km
Updated: 31-05-2020 14:20
Mostly Cloudy  
Mostly Cloudy  
   Wind: SSW 11.1 km/h
Wind: SSW 11.1 km/h
Temperature: 21°C
Dew Point: 10°C
Humidity: 50%
Barometer: 1015 hPa
Clouds: Mostly Cloudy
Visibility: More than 10 km
Cloud details: Few Clouds 1500 ft,
Partly Cloudy 2500 ft,
Mostly Cloudy 8000 ft
LGAD 311120Z 20006KT 9999 FEW015 SCT025 BKN080 21/10 Q1015
LGKL - Kalamata (hel-Af, Greece
Distance from station: SSW 124 km
Updated: 31-05-2020 14:20
Mostly Cloudy  
Mostly Cloudy  
   Wind: Calm
Wind: Calm
Temperature: 19°C
Dew Point: 12°C
Humidity: 64%
Barometer: 1015 hPa
Clouds: Mostly Cloudy
Visibility: More than 10 km
Cloud details: Few Clouds 2000 ft,
Mostly Cloudy 8000 ft
LGKL 311120Z 00000KT 9999 FEW020 BKN080 19/12 Q1015
LGBL - Nea Anchialos, Greece
Distance from station: N 129 km
Updated: 31-05-2020 14:20
Few Clouds  
Few Clouds  
   Wind: East 16.7 km/h
Wind: East 16.7 km/h
Temperature: 24°C
Dew Point: 11°C
Humidity: 44%
Barometer: 1011 hPa
Clouds: Few Clouds
Visibility: More than 10 km
Cloud details: Few Clouds 3000 ft
LGBL 311120Z 10009KT 9999 FEW030 24/11 Q1011

Script developed by  Saratoga-weather.org Adapted for the template by  Weerstation Leuven

You find our weather info also at:

European Weather Network

Weather Underground

AWEKAS

Citizen Weather Observer Program (CWOP)

UK Metoffice

Equipment we use:

Weather-station
Davis Wireless Vantage Pro2

Davis Wireless Vantage Pro2